Time;durP1;ratioP1;P1;durP2;ratioP2;P2;SDS_P1;SDS_P2;PMS_P1;PMS_P2;Temp;Humidity;BMP_temperature;BMP_pressure;BME280_temperature;BME280_humidity;BME280_pressure;Samples;Min_cycle;Max_cycle;Signal;HPM_P1;HPM_P2
2022/05/08 00:00:05;;;;;;;16.95;11.45;;;;;;;;;;5021034;28;20461;-62
2022/05/08 00:02:31;;;;;;;12.15;7.32;;;;;;;;;;5018928;28;20039;-62
2022/05/08 00:04:57;;;;;;;9.70;6.03;;;;;;;;;;5019173;28;20029;-62
2022/05/08 00:07:23;;;;;;;11.00;5.43;;;;;;;;;;5020655;28;20049;-62
2022/05/08 00:09:50;;;;;;;11.32;4.80;;;;;;;;;;5024773;28;20058;-62
2022/05/08 00:12:17;;;;;;;10.07;5.05;;;;;;;;;;5020645;28;20351;-62
2022/05/08 00:14:43;;;;;;;11.60;4.78;;;;;;;;;;5026919;28;20037;-62
2022/05/08 00:17:11;;;;;;;8.13;3.78;;;;;;;;;;5026242;28;20087;-62
2022/05/08 00:19:39;;;;;;;8.65;3.30;;;;;;;;;;5026637;28;20800;-62
2022/05/08 00:22:05;;;;;;;9.27;3.58;;;;;;;;;;5026452;28;20924;-62
2022/05/08 00:24:31;;;;;;;6.97;3.65;;;;;;;;;;5024605;28;20032;-62
2022/05/08 00:26:57;;;;;;;5.32;2.97;;;;;;;;;;5026327;28;20037;-62
2022/05/08 00:29:24;;;;;;;7.35;2.88;;;;;;;;;;5025769;28;20060;-62
2022/05/08 00:31:50;;;;;;;6.00;2.92;;;;;;;;;;5024532;28;20029;-62
2022/05/08 00:34:16;;;;;;;5.70;2.97;;;;;;;;;;5021958;28;20049;-62
2022/05/08 00:36:42;;;;;;;8.25;3.70;;;;;;;;;;5027317;28;20022;-62
2022/05/08 00:39:08;;;;;;;7.78;3.50;;;;;;;;;;5022147;28;20025;-62
2022/05/08 00:41:34;;;;;;;7.10;3.13;;;;;;;;;;5023264;28;20029;-62
2022/05/08 00:44:00;;;;;;;6.90;3.50;;;;;;;;;;5024722;28;20107;-62
2022/05/08 00:46:27;;;;;;;6.20;3.10;;;;;;;;;;5023638;28;20394;-62
2022/05/08 00:48:53;;;;;;;7.45;3.65;;;;;;;;;;5020147;28;20388;-62
2022/05/08 00:51:20;;;;;;;6.68;3.70;;;;;;;;;;5022927;28;20037;-62
2022/05/08 00:53:57;;;;;;;11.55;3.88;;;;;;;;;;5025114;28;20540;-62
2022/05/08 00:56:23;;;;;;;9.98;4.28;;;;;;;;;;5024809;28;20428;-62
2022/05/08 00:58:50;;;;;;;10.65;4.32;;;;;;;;;;5025056;28;20304;-62
2022/05/08 01:01:17;;;;;;;7.47;4.15;;;;;;;;;;5021428;28;20021;-62
2022/05/08 01:03:46;;;;;;;10.55;4.60;;;;;;;;;;5020866;28;20034;-62
2022/05/08 01:06:13;;;;;;;9.15;4.63;;;;;;;;;;5023335;28;20226;-62
2022/05/08 01:08:40;;;;;;;11.07;4.88;;;;;;;;;;5028901;28;20098;-62
2022/05/08 01:11:08;;;;;;;11.23;5.13;;;;;;;;;;5024545;28;20029;-62
2022/05/08 01:13:34;;;;;;;9.57;5.53;;;;;;;;;;5024291;28;20538;-62
2022/05/08 01:16:00;;;;;;;10.55;5.38;;;;;;;;;;5021251;28;20769;-62
2022/05/08 01:18:27;;;;;;;11.05;5.28;;;;;;;;;;5024748;28;20026;-62
2022/05/08 01:20:53;;;;;;;12.50;5.28;;;;;;;;;;5023935;28;20049;-62
2022/05/08 01:23:21;;;;;;;13.35;4.85;;;;;;;;;;5023519;28;20484;-62
2022/05/08 01:25:54;;;;;;;12.10;5.00;;;;;;;;;;5023295;28;20029;-62
2022/05/08 01:28:20;;;;;;;;;;;;;;;;;;5022845;28;20179;-62
2022/05/08 01:30:47;;;;;;;11.05;5.82;;;;;;;;;;5024594;28;20829;-62
2022/05/08 01:33:14;;;;;;;12.48;5.28;;;;;;;;;;5026416;28;20022;-62
2022/05/08 01:35:41;;;;;;;9.10;5.45;;;;;;;;;;5026198;28;20105;-62
2022/05/08 01:38:08;;;;;;;14.43;5.82;;;;;;;;;;5018328;28;20028;-62
2022/05/08 01:40:34;;;;;;;8.45;5.60;;;;;;;;;;5025269;28;20562;-62
2022/05/08 01:43:00;;;;;;;11.05;5.75;;;;;;;;;;5022304;28;20357;-62
2022/05/08 01:45:26;;;;;;;10.07;6.00;;;;;;;;;;5030007;28;20060;-62
2022/05/08 01:50:37;;;;;;;9.38;5.47;;;;;;;;;;5017989;28;20090;-62
2022/05/08 01:53:03;;;;;;;9.77;6.00;;;;;;;;;;5024695;28;20038;-62
2022/05/08 01:55:29;;;;;;;12.63;6.07;;;;;;;;;;5024396;28;20099;-62
2022/05/08 01:57:55;;;;;;;8.32;5.75;;;;;;;;;;5021937;28;20080;-62
2022/05/08 02:00:22;;;;;;;7.88;5.63;;;;;;;;;;5024052;28;20029;-62
2022/05/08 02:02:48;;;;;;;11.43;5.40;;;;;;;;;;5018652;28;20017;-62
2022/05/08 02:05:16;;;;;;;11.60;6.35;;;;;;;;;;5021266;28;20429;-62
2022/05/08 02:07:43;;;;;;;10.75;6.15;;;;;;;;;;5020553;28;20026;-62
2022/05/08 02:10:09;;;;;;;9.48;5.53;;;;;;;;;;5020440;28;20033;-62
2022/05/08 02:12:35;;;;;;;10.35;5.82;;;;;;;;;;5023513;28;20056;-62
2022/05/08 02:15:01;;;;;;;10.07;6.35;;;;;;;;;;5024692;28;20065;-62
2022/05/08 02:17:28;;;;;;;9.75;6.70;;;;;;;;;;5024401;28;20586;-62
2022/05/08 02:19:54;;;;;;;13.73;6.50;;;;;;;;;;5024583;28;20055;-62
2022/05/08 02:22:20;;;;;;;12.80;7.40;;;;;;;;;;5024458;28;20018;-62
2022/05/08 02:24:45;;;;;;;11.55;7.68;;;;;;;;;;5025281;28;20032;-62
2022/05/08 02:27:11;;;;;;;18.30;7.85;;;;;;;;;;5023634;28;20044;-62
2022/05/08 02:29:37;;;;;;;14.90;8.48;;;;;;;;;;5023902;28;20056;-62
2022/05/08 02:32:04;;;;;;;13.68;8.30;;;;;;;;;;5023003;28;20041;-62
2022/05/08 02:34:29;;;;;;;15.07;8.88;;;;;;;;;;5024145;28;20128;-62
2022/05/08 02:36:55;;;;;;;17.73;9.80;;;;;;;;;;5024320;28;20108;-61
2022/05/08 02:39:21;;;;;;;16.65;9.05;;;;;;;;;;5025080;28;20096;-62
2022/05/08 02:41:47;;;;;;;16.05;9.48;;;;;;;;;;5016589;28;20032;-62
2022/05/08 02:44:13;;;;;;;16.23;10.25;;;;;;;;;;5021823;28;20057;-62
2022/05/08 02:46:39;;;;;;;13.35;9.77;;;;;;;;;;5021749;28;20076;-63
2022/05/08 02:49:05;;;;;;;17.00;10.27;;;;;;;;;;5023973;28;20033;-62
2022/05/08 02:51:31;;;;;;;16.50;10.55;;;;;;;;;;5022198;28;20029;-62
2022/05/08 02:53:57;;;;;;;17.83;11.00;;;;;;;;;;5023017;28;20384;-62
2022/05/08 02:59:10;;;;;;;18.92;10.95;;;;;;;;;;5013661;28;20492;-62
2022/05/08 03:01:36;;;;;;;17.70;12.88;;;;;;;;;;5020242;28;20129;-62
2022/05/08 03:04:02;;;;;;;19.77;12.07;;;;;;;;;;5018012;28;20451;-61
2022/05/08 03:06:28;;;;;;;18.45;13.05;;;;;;;;;;5025093;28;20014;-62
2022/05/08 03:08:54;;;;;;;20.42;12.40;;;;;;;;;;5022570;28;20096;-62
2022/05/08 03:11:26;;;;;;;18.08;12.20;;;;;;;;;;5024335;28;20018;-62
2022/05/08 03:13:52;;;;;;;19.42;13.10;;;;;;;;;;5018481;28;20052;-62
2022/05/08 03:16:18;;;;;;;21.27;12.75;;;;;;;;;;5022355;28;20048;-62
2022/05/08 03:18:45;;;;;;;19.10;13.00;;;;;;;;;;5025052;28;20040;-62
2022/05/08 03:21:12;;;;;;;19.35;12.75;;;;;;;;;;5019519;28;20022;-62
2022/05/08 03:23:42;;;;;;;17.58;12.27;;;;;;;;;;5021907;28;20044;-62
2022/05/08 03:26:09;;;;;;;18.70;11.60;;;;;;;;;;5021927;28;20033;-62
2022/05/08 03:28:35;;;;;;;20.70;13.63;;;;;;;;;;5023124;28;20080;-62
2022/05/08 03:31:01;;;;;;;18.30;13.45;;;;;;;;;;5018798;28;20056;-62
2022/05/08 03:33:28;;;;;;;19.33;13.07;;;;;;;;;;5021664;28;20025;-62
2022/05/08 03:35:54;;;;;;;18.20;13.25;;;;;;;;;;5023511;28;20033;-62
2022/05/08 03:38:20;;;;;;;19.92;12.57;;;;;;;;;;5024182;28;20026;-62
2022/05/08 03:40:46;;;;;;;18.00;13.48;;;;;;;;;;5030333;28;20376;-62
2022/05/08 03:43:12;;;;;;;19.17;13.00;;;;;;;;;;5027306;28;20369;-62
2022/05/08 03:45:38;;;;;;;19.73;13.95;;;;;;;;;;5025170;28;20041;-62
2022/05/08 03:48:04;;;;;;;20.55;14.07;;;;;;;;;;5024320;28;20071;-62
2022/05/08 03:50:30;;;;;;;18.63;13.60;;;;;;;;;;5027223;28;20040;-62
2022/05/08 03:52:57;;;;;;;21.63;14.23;;;;;;;;;;5023754;28;20406;-62
2022/05/08 03:55:23;;;;;;;21.52;14.38;;;;;;;;;;5027610;28;20029;-62
2022/05/08 03:57:49;;;;;;;19.70;14.88;;;;;;;;;;5021329;28;20092;-62
2022/05/08 04:00:15;;;;;;;19.25;14.30;;;;;;;;;;5026766;28;20036;-62
2022/05/08 04:02:42;;;;;;;19.40;14.73;;;;;;;;;;5024288;28;20113;-62
2022/05/08 04:05:09;;;;;;;19.40;12.55;;;;;;;;;;5024713;28;20420;-62
2022/05/08 04:07:35;;;;;;;15.05;8.93;;;;;;;;;;5018151;28;20457;-62
2022/05/08 04:10:01;;;;;;;14.25;8.88;;;;;;;;;;5026487;28;20025;-62
2022/05/08 04:12:27;;;;;;;13.88;9.52;;;;;;;;;;5022740;28;20496;-62
2022/05/08 04:14:53;;;;;;;15.10;9.52;;;;;;;;;;5024639;28;20034;-62
2022/05/08 04:17:20;;;;;;;15.52;10.55;;;;;;;;;;5026513;28;20083;-62
2022/05/08 04:19:46;;;;;;;20.98;12.43;;;;;;;;;;5027777;28;20499;-61
2022/05/08 04:24:57;;;;;;;19.38;13.10;;;;;;;;;;5023142;28;20040;-62
2022/05/08 04:27:23;;;;;;;19.60;13.82;;;;;;;;;;5025728;28;20033;-62
2022/05/08 04:29:49;;;;;;;18.60;13.77;;;;;;;;;;5026881;28;20029;-62
2022/05/08 04:32:15;;;;;;;18.05;13.52;;;;;;;;;;5020727;28;20131;-62
2022/05/08 04:34:41;;;;;;;20.13;14.88;;;;;;;;;;5026178;28;20037;-62
2022/05/08 04:37:09;;;;;;;22.20;15.40;;;;;;;;;;5026272;28;20037;-62
2022/05/08 04:39:35;;;;;;;21.70;15.88;;;;;;;;;;5023356;28;20049;-62
2022/05/08 04:42:01;;;;;;;21.52;15.48;;;;;;;;;;5023418;28;20061;-62
2022/05/08 04:44:27;;;;;;;27.90;16.13;;;;;;;;;;5024768;28;20046;-62
2022/05/08 04:46:53;;;;;;;24.63;16.33;;;;;;;;;;5025226;28;20392;-62
2022/05/08 04:49:19;;;;;;;22.67;15.07;;;;;;;;;;5024160;28;20029;-62
2022/05/08 04:51:45;;;;;;;22.80;14.48;;;;;;;;;;5022513;28;20042;-62
2022/05/08 04:54:11;;;;;;;18.65;14.00;;;;;;;;;;5026760;28;20037;-62
2022/05/08 04:56:37;;;;;;;20.60;13.15;;;;;;;;;;5027285;28;20140;-62
2022/05/08 04:59:03;;;;;;;21.88;12.02;;;;;;;;;;5026198;28;20456;-62
2022/05/08 05:01:29;;;;;;;17.10;11.32;;;;;;;;;;5023775;28;20538;-62
2022/05/08 05:03:56;;;;;;;18.63;12.00;;;;;;;;;;5019683;28;20025;-62
2022/05/08 05:06:22;;;;;;;18.35;11.43;;;;;;;;;;5026183;28;20025;-62
2022/05/08 05:08:47;;;;;;;20.17;12.27;;;;;;;;;;5025770;28;20030;-62
2022/05/08 05:11:13;;;;;;;20.33;11.77;;;;;;;;;;5024334;28;20045;-62
2022/05/08 05:13:40;;;;;;;22.42;12.18;;;;;;;;;;5024702;28;20057;-63
2022/05/08 05:16:06;;;;;;;18.38;11.07;;;;;;;;;;5023513;28;20045;-63
2022/05/08 05:18:32;;;;;;;19.67;11.52;;;;;;;;;;5024121;28;20017;-63
2022/05/08 05:20:58;;;;;;;20.98;11.77;;;;;;;;;;5025592;28;20022;-63
2022/05/08 05:23:24;;;;;;;18.80;11.15;;;;;;;;;;5022214;28;20431;-63
2022/05/08 05:25:50;;;;;;;16.52;10.40;;;;;;;;;;5023850;28;20048;-63
2022/05/08 05:28:16;;;;;;;19.48;10.52;;;;;;;;;;5020750;28;20029;-63
2022/05/08 05:30:42;;;;;;;18.80;9.77;;;;;;;;;;5022901;28;20452;-63
2022/05/08 05:33:15;;;;;;;18.25;10.38;;;;;;;;;;5024712;28;20031;-63
2022/05/08 05:35:41;;;;;;;16.85;10.38;;;;;;;;;;5024872;28;20036;-63
2022/05/08 05:38:07;;;;;;;17.17;9.93;;;;;;;;;;5021077;28;20707;-63
2022/05/08 05:40:33;;;;;;;16.25;9.80;;;;;;;;;;5026964;28;20043;-63
2022/05/08 05:42:59;;;;;;;16.98;10.65;;;;;;;;;;5023898;28;20109;-63
2022/05/08 05:45:25;;;;;;;19.45;9.73;;;;;;;;;;5025373;28;20034;-63
2022/05/08 05:47:54;;;;;;;19.15;10.15;;;;;;;;;;5024178;28;20473;-63
2022/05/08 05:50:24;;;;;;;24.73;10.40;;;;;;;;;;5023907;28;20056;-63
2022/05/08 05:52:50;;;;;;;22.50;10.15;;;;;;;;;;5024448;28;20037;-63
2022/05/08 05:55:17;;;;;;;17.23;9.25;;;;;;;;;;5023791;28;20061;-63
2022/05/08 05:57:44;;;;;;;21.30;10.80;;;;;;;;;;5022253;28;20052;-64
2022/05/08 06:00:11;;;;;;;20.85;9.50;;;;;;;;;;5017943;28;20469;-63
2022/05/08 06:02:38;;;;;;;24.98;9.48;;;;;;;;;;5022048;28;20429;-63
2022/05/08 06:05:06;;;;;;;19.55;9.23;;;;;;;;;;5018564;28;20037;-63
2022/05/08 06:07:32;;;;;;;21.60;9.70;;;;;;;;;;5020473;28;20033;-63
2022/05/08 06:09:59;;;;;;;22.30;9.10;;;;;;;;;;5023528;28;20025;-63
2022/05/08 06:12:25;;;;;;;23.95;10.52;;;;;;;;;;5018510;28;20481;-63
2022/05/08 06:14:51;;;;;;;25.13;8.65;;;;;;;;;;5023468;28;20014;-63
2022/05/08 06:17:17;;;;;;;28.10;9.85;;;;;;;;;;5024609;28;20398;-63
2022/05/08 06:19:43;;;;;;;24.83;9.32;;;;;;;;;;5022999;28;20068;-63
2022/05/08 06:22:09;;;;;;;23.17;9.18;;;;;;;;;;5021443;28;20076;-63
2022/05/08 06:24:35;;;;;;;23.73;10.32;;;;;;;;;;5024863;28;20045;-63
2022/05/08 06:27:01;;;;;;;23.58;9.65;;;;;;;;;;5024192;28;20627;-63
2022/05/08 06:29:27;;;;;;;21.83;9.75;;;;;;;;;;5023748;28;20026;-63
2022/05/08 06:31:54;;;;;;;25.83;9.90;;;;;;;;;;5023696;28;20060;-63
2022/05/08 06:34:20;;;;;;;25.20;9.95;;;;;;;;;;5022759;28;20531;-63
2022/05/08 06:36:46;;;;;;;25.98;10.52;;;;;;;;;;5021800;28;20480;-63
2022/05/08 06:39:13;;;;;;;26.73;10.23;;;;;;;;;;5026158;28;20041;-63
2022/05/08 06:41:39;;;;;;;21.10;10.77;;;;;;;;;;5021084;28;20025;-63
2022/05/08 06:44:05;;;;;;;22.58;9.52;;;;;;;;;;5022814;28;20025;-63
2022/05/08 06:46:32;;;;;;;27.00;10.52;;;;;;;;;;5025851;28;20044;-63
2022/05/08 06:49:01;;;;;;;20.75;9.75;;;;;;;;;;5024943;28;20409;-63
2022/05/08 06:51:27;;;;;;;28.17;9.90;;;;;;;;;;5022920;28;20400;-63
2022/05/08 06:53:53;;;;;;;24.90;9.90;;;;;;;;;;5023401;28;20056;-63
2022/05/08 06:56:19;;;;;;;26.35;9.73;;;;;;;;;;5024045;28;20064;-63
2022/05/08 07:01:38;;;;;;;25.98;8.57;;;;;;;;;;5020931;28;20033;-63
2022/05/08 07:04:04;;;;;;;21.73;8.90;;;;;;;;;;5021009;28;20025;-63
2022/05/08 07:06:30;;;;;;;20.02;8.13;;;;;;;;;;5024992;28;20018;-64
2022/05/08 07:08:56;;;;;;;23.25;8.10;;;;;;;;;;5019444;28;20020;-63
2022/05/08 07:11:22;;;;;;;33.78;19.48;;;;;;;;;;5024160;28;20018;-59
2022/05/08 07:13:48;;;;;;;33.42;17.70;;;;;;;;;;5019147;28;20056;-58
2022/05/08 07:16:14;;;;;;;24.73;8.43;;;;;;;;;;5023793;28;20068;-64
2022/05/08 07:18:40;;;;;;;24.67;7.93;;;;;;;;;;5023243;28;20021;-64
2022/05/08 07:21:06;;;;;;;20.13;7.50;;;;;;;;;;5026770;28;20448;-64
2022/05/08 07:23:32;;;;;;;26.65;8.80;;;;;;;;;;5027034;28;20473;-64
2022/05/08 07:25:58;;;;;;;23.20;7.47;;;;;;;;;;5025413;28;20167;-64
2022/05/08 07:28:25;;;;;;;19.38;6.68;;;;;;;;;;5023829;28;20044;-64
2022/05/08 07:30:51;;;;;;;17.85;6.88;;;;;;;;;;5024296;28;20025;-64
2022/05/08 07:33:17;;;;;;;26.30;7.28;;;;;;;;;;5026584;28;20412;-64
2022/05/08 07:38:28;;;;;;;22.17;6.35;;;;;;;;;;5022831;28;20037;-64
2022/05/08 07:40:54;;;;;;;22.73;7.05;;;;;;;;;;5025127;28;20067;-64
2022/05/08 07:43:20;;;;;;;17.75;6.15;;;;;;;;;;5026485;28;20423;-64
2022/05/08 07:45:46;;;;;;;17.17;6.40;;;;;;;;;;5024270;28;20036;-64
2022/05/08 07:48:12;;;;;;;16.52;6.10;;;;;;;;;;5028395;28;20022;-64
2022/05/08 07:50:39;;;;;;;24.05;6.45;;;;;;;;;;5027559;28;20044;-64
2022/05/08 07:53:05;;;;;;;24.75;6.47;;;;;;;;;;5027126;28;20512;-64
2022/05/08 07:55:32;;;;;;;22.45;6.68;;;;;;;;;;5025577;28;20112;-64
2022/05/08 07:57:58;;;;;;;21.23;6.88;;;;;;;;;;5023893;28;20100;-64
2022/05/08 08:00:24;;;;;;;23.20;6.60;;;;;;;;;;5024071;28;20175;-64
2022/05/08 08:02:50;;;;;;;22.38;6.82;;;;;;;;;;5025037;28;20116;-64
2022/05/08 08:05:16;;;;;;;25.45;7.20;;;;;;;;;;5020894;28;20026;-64
2022/05/08 08:07:42;;;;;;;28.05;7.50;;;;;;;;;;5026586;28;20037;-65
2022/05/08 08:10:08;;;;;;;24.90;7.30;;;;;;;;;;5024410;28;20182;-65
2022/05/08 08:12:34;;;;;;;20.40;7.30;;;;;;;;;;5025946;28;20029;-64
2022/05/08 08:15:00;;;;;;;20.42;6.72;;;;;;;;;;5026845;28;20033;-65
2022/05/08 08:17:27;;;;;;;24.48;6.93;;;;;;;;;;5023256;28;20034;-65
2022/05/08 08:19:54;;;;;;;23.58;7.07;;;;;;;;;;5022834;28;20021;-65
2022/05/08 08:22:21;;;;;;;22.88;6.93;;;;;;;;;;5027064;28;20018;-65
2022/05/08 08:24:47;;;;;;;22.30;7.20;;;;;;;;;;5027201;28;20500;-65
2022/05/08 08:27:13;;;;;;;24.90;7.15;;;;;;;;;;5025625;28;20047;-66
2022/05/08 08:29:39;;;;;;;24.17;7.03;;;;;;;;;;5026468;28;20554;-63
2022/05/08 08:32:05;;;;;;;37.10;17.17;;;;;;;;;;5023937;28;20037;-60
2022/05/08 08:34:31;;;;;;;27.35;13.07;;;;;;;;;;5027321;28;20273;-59
2022/05/08 08:36:57;;;;;;;19.75;6.10;;;;;;;;;;5026834;28;20025;-63
2022/05/08 08:39:23;;;;;;;26.90;6.28;;;;;;;;;;5024446;28;20033;-63
2022/05/08 08:42:01;;;;;;;24.92;6.13;;;;;;;;;;5023592;28;20025;-64
2022/05/08 08:50:02;;;;;;;17.98;5.03;;;;;;;;;;5025703;28;20056;-64
2022/05/08 08:52:28;;;;;;;24.08;5.93;;;;;;;;;;5025640;28;20109;-65
2022/05/08 08:54:54;;;;;;;18.45;5.47;;;;;;;;;;5024650;28;20029;-65
2022/05/08 08:57:20;;;;;;;23.48;5.70;;;;;;;;;;5024616;28;20563;-65
2022/05/08 08:59:46;;;;;;;24.52;5.15;;;;;;;;;;5023984;28;20038;-65
2022/05/08 09:02:14;;;;;;;16.63;4.93;;;;;;;;;;5024500;28;20026;-65
2022/05/08 09:04:41;;;;;;;21.63;5.10;;;;;;;;;;5022202;28;20396;-65
2022/05/08 09:07:26;;;;;;;27.30;5.35;;;;;;;;;;5019175;28;20440;-65
2022/05/08 09:10:05;;;;;;;27.30;5.88;;;;;;;;;;5027942;28;20055;-65
2022/05/08 09:12:31;;;;;;;167.60;107.47;;;;;;;;;;5026710;28;20037;-60
2022/05/08 09:14:57;;;;;;;21.52;5.53;;;;;;;;;;5025010;28;20381;-64
2022/05/08 09:17:23;;;;;;;19.05;5.25;;;;;;;;;;5025472;28;20650;-65
2022/05/08 09:19:49;;;;;;;20.20;5.00;;;;;;;;;;5026260;28;20079;-65
2022/05/08 09:22:18;;;;;;;18.95;4.65;;;;;;;;;;5025788;28;20013;-66
2022/05/08 09:24:55;;;;;;;17.45;4.40;;;;;;;;;;5020818;28;20084;-66
2022/05/08 09:27:22;;;;;;;19.05;4.90;;;;;;;;;;5024956;28;20025;-66
2022/05/08 09:29:48;;;;;;;17.77;4.90;;;;;;;;;;5024795;28;20021;-65
2022/05/08 09:32:34;;;;;;;21.35;4.93;;;;;;;;;;5023236;28;20104;-66
2022/05/08 09:35:01;;;;;;;18.95;4.80;;;;;;;;;;5022883;28;20018;-66
2022/05/08 09:37:27;;;;;;;19.38;4.65;;;;;;;;;;5024523;28;20599;-65
2022/05/08 09:40:13;;;;;;;18.35;4.30;;;;;;;;;;5024506;28;20028;-65
2022/05/08 09:42:39;;;;;;;18.65;4.40;;;;;;;;;;5022593;28;20388;-65
2022/05/08 09:45:10;;;;;;;16.70;4.85;;;;;;;;;;5024114;28;20372;-65
2022/05/08 09:47:41;;;;;;;18.38;4.57;;;;;;;;;;5020657;28;20616;-65
2022/05/08 09:50:08;;;;;;;17.42;4.68;;;;;;;;;;5022872;28;20503;-64
2022/05/08 09:52:34;;;;;;;14.20;4.38;;;;;;;;;;5023107;28;20032;-65
2022/05/08 09:55:02;;;;;;;15.02;4.30;;;;;;;;;;5024983;28;20065;-65
2022/05/08 09:57:28;;;;;;;17.55;4.35;;;;;;;;;;5022902;28;20021;-65
2022/05/08 09:59:54;;;;;;;14.35;4.10;;;;;;;;;;5024200;28;20121;-65
2022/05/08 10:02:20;;;;;;;14.85;4.00;;;;;;;;;;5020950;28;20025;-65
2022/05/08 10:04:48;;;;;;;15.80;4.25;;;;;;;;;;5021273;28;20029;-65
2022/05/08 10:07:14;;;;;;;15.35;4.20;;;;;;;;;;5020664;28;20036;-65
2022/05/08 10:15:33;;;;;;;15.63;4.10;;;;;;;;;;5024385;28;20612;-65
2022/05/08 10:18:18;;;;;;;16.33;4.40;;;;;;;;;;5016475;28;20414;-65
2022/05/08 10:21:13;;;;;;;12.48;3.75;;;;;;;;;;5024794;28;20397;-65
2022/05/08 10:23:40;;;;;;;27.40;11.30;;;;;;;;;;5020791;28;20038;-61
2022/05/08 10:26:16;;;;;;;15.68;4.78;;;;;;;;;;5022805;28;20037;-64
2022/05/08 10:29:01;;;;;;;18.15;5.15;;;;;;;;;;5022730;28;20061;-64
2022/05/08 10:31:43;;;;;;;16.67;5.10;;;;;;;;;;5022906;28;20041;-65
2022/05/08 10:34:10;;;;;;;20.00;4.82;;;;;;;;;;5023781;28;20048;-64
2022/05/08 10:36:36;;;;;;;16.25;4.40;;;;;;;;;;5023446;28;20033;-64
2022/05/08 10:39:20;;;;;;;15.20;3.50;;;;;;;;;;5020197;28;20108;-65
2022/05/08 10:41:47;;;;;;;11.55;4.07;;;;;;;;;;5020648;28;20112;-65
2022/05/08 10:44:32;;;;;;;11.52;3.80;;;;;;;;;;5019827;28;20767;-65
2022/05/08 10:47:16;;;;;;;14.73;4.00;;;;;;;;;;5021044;28;20083;-65
2022/05/08 10:49:42;;;;;;;15.80;4.00;;;;;;;;;;5023439;28;20416;-65
2022/05/08 10:52:08;;;;;;;16.65;3.47;;;;;;;;;;5021337;28;20040;-65
2022/05/08 10:54:34;;;;;;;15.77;3.55;;;;;;;;;;5022060;28;20030;-66
2022/05/08 10:57:00;;;;;;;15.02;3.75;;;;;;;;;;5022554;28;20055;-65
2022/05/08 10:59:45;;;;;;;14.32;3.70;;;;;;;;;;5021831;28;20221;-65
2022/05/08 11:02:11;;;;;;;16.88;4.18;;;;;;;;;;5017792;28;20645;-64
2022/05/08 11:04:52;;;;;;;14.90;4.18;;;;;;;;;;5016144;28;20037;-65
2022/05/08 11:07:22;;;;;;;10.82;3.80;;;;;;;;;;5022818;28;20057;-65
2022/05/08 11:09:48;;;;;;;14.95;3.80;;;;;;;;;;5022544;28;20036;-65
2022/05/08 11:12:14;;;;;;;15.25;3.95;;;;;;;;;;5024009;28;20382;-65
2022/05/08 11:14:40;;;;;;;12.93;3.63;;;;;;;;;;5021476;28;20095;-65
2022/05/08 11:17:16;;;;;;;12.88;3.90;;;;;;;;;;5023944;28;20025;-64
2022/05/08 11:19:52;;;;;;;14.50;3.60;;;;;;;;;;5017641;28;20052;-65
2022/05/08 11:22:18;;;;;;;15.07;4.30;;;;;;;;;;5017891;28;20424;-65
2022/05/08 11:24:49;;;;;;;11.85;3.97;;;;;;;;;;5021987;28;20030;-65
2022/05/08 11:27:15;;;;;;;14.10;3.78;;;;;;;;;;5024633;28;20497;-64
2022/05/08 11:29:59;;;;;;;10.70;3.50;;;;;;;;;;5024467;28;20037;-65
2022/05/08 11:38:05;;;;;;;11.25;3.42;;;;;;;;;;5019587;28;20118;-64
2022/05/08 11:40:31;;;;;;;10.90;3.10;;;;;;;;;;5019341;28;20505;-65
2022/05/08 11:42:57;;;;;;;13.48;3.42;;;;;;;;;;5018883;28;20026;-65
2022/05/08 11:45:23;;;;;;;15.45;5.38;;;;;;;;;;5022122;28;20477;-64
2022/05/08 11:47:50;;;;;;;14.75;3.33;;;;;;;;;;5018913;28;20058;-64
2022/05/08 11:50:16;;;;;;;9.65;2.50;;;;;;;;;;5020184;28;20025;-65
2022/05/08 11:52:42;;;;;;;9.73;2.60;;;;;;;;;;5017536;28;20053;-64
2022/05/08 11:55:08;;;;;;;14.38;3.33;;;;;;;;;;5022790;28;20384;-64
2022/05/08 11:57:42;;;;;;;12.05;3.05;;;;;;;;;;5018408;28;20025;-64
2022/05/08 12:00:10;;;;;;;12.25;3.60;;;;;;;;;;5019967;28;20767;-65
2022/05/08 12:02:43;;;;;;;13.40;3.78;;;;;;;;;;5026559;28;20659;-65
2022/05/08 12:05:19;;;;;;;13.35;3.42;;;;;;;;;;5021197;28;20022;-65
2022/05/08 12:07:48;;;;;;;9.40;3.50;;;;;;;;;;5023388;28;20039;-65
2022/05/08 12:10:15;;;;;;;17.25;4.05;;;;;;;;;;5025487;28;20092;-65
2022/05/08 12:12:42;;;;;;;11.25;3.15;;;;;;;;;;5034738;28;20057;-65
2022/05/08 12:15:09;;;;;;;9.88;3.13;;;;;;;;;;5026009;28;20025;-65
2022/05/08 12:17:45;;;;;;;14.25;3.40;;;;;;;;;;5020905;28;20025;-64
2022/05/08 12:20:11;;;;;;;9.95;2.65;;;;;;;;;;5024721;28;20020;-65
2022/05/08 12:22:37;;;;;;;11.38;2.83;;;;;;;;;;5024090;28;20037;-65
2022/05/08 12:25:04;;;;;;;11.13;3.00;;;;;;;;;;5025077;28;20040;-65
2022/05/08 12:27:30;;;;;;;13.52;3.13;;;;;;;;;;5021507;28;20033;-64
2022/05/08 12:29:56;;;;;;;14.48;3.45;;;;;;;;;;5025564;28;20037;-65
2022/05/08 12:32:23;;;;;;;20.02;3.30;;;;;;;;;;5024843;28;20439;-65
2022/05/08 12:34:49;;;;;;;15.23;3.33;;;;;;;;;;5023372;28;20105;-65
2022/05/08 12:37:16;;;;;;;10.68;2.95;;;;;;;;;;5025499;28;20014;-65
2022/05/08 12:39:43;;;;;;;8.63;2.63;;;;;;;;;;5023106;28;20096;-65
2022/05/08 12:42:09;;;;;;;11.75;3.42;;;;;;;;;;5022703;28;20049;-64
2022/05/08 12:44:39;;;;;;;11.00;2.60;;;;;;;;;;5022768;28;20261;-65
2022/05/08 12:47:09;;;;;;;11.68;3.25;;;;;;;;;;5023745;28;20033;-64
2022/05/08 12:49:35;;;;;;;12.77;3.30;;;;;;;;;;5027091;28;20022;-65
2022/05/08 12:52:03;;;;;;;10.98;2.83;;;;;;;;;;5025469;28;20024;-65
2022/05/08 12:54:29;;;;;;;10.43;2.85;;;;;;;;;;5022765;28;20025;-65
2022/05/08 12:56:55;;;;;;;9.18;2.75;;;;;;;;;;5025989;28;20567;-65
2022/05/08 13:02:05;;;;;;;9.27;2.78;;;;;;;;;;5021904;28;20120;-64
2022/05/08 13:04:31;;;;;;;13.63;3.38;;;;;;;;;;5022981;28;20116;-65
2022/05/08 13:06:57;;;;;;;8.60;2.60;;;;;;;;;;5025608;28;20292;-64
2022/05/08 13:09:23;;;;;;;11.85;3.13;;;;;;;;;;5024580;28;20029;-65
2022/05/08 13:11:49;;;;;;;10.05;2.78;;;;;;;;;;5025076;28;20374;-65
2022/05/08 13:14:15;;;;;;;10.55;3.15;;;;;;;;;;5022955;28;20616;-65
2022/05/08 13:16:41;;;;;;;13.75;2.80;;;;;;;;;;5024263;28;20034;-65
2022/05/08 13:19:07;;;;;;;8.80;2.47;;;;;;;;;;5025203;28;20417;-65
2022/05/08 13:21:34;;;;;;;13.80;2.60;;;;;;;;;;5025987;28;20044;-65
2022/05/08 13:24:00;;;;;;;12.40;2.80;;;;;;;;;;5025916;28;20013;-65
2022/05/08 13:26:27;;;;;;;10.15;3.42;;;;;;;;;;5023679;28;20068;-64
2022/05/08 13:28:53;;;;;;;11.55;3.20;;;;;;;;;;5022176;28;20112;-65
2022/05/08 13:31:19;;;;;;;9.15;2.78;;;;;;;;;;5023996;28;20104;-65
2022/05/08 13:33:45;;;;;;;14.38;3.40;;;;;;;;;;5025495;28;20037;-65
2022/05/08 13:36:11;;;;;;;8.52;2.80;;;;;;;;;;5019570;28;20052;-65
2022/05/08 13:38:39;;;;;;;10.98;2.80;;;;;;;;;;5025800;28;20025;-65
2022/05/08 13:41:05;;;;;;;12.13;2.97;;;;;;;;;;5023492;28;20021;-65
2022/05/08 13:43:31;;;;;;;10.75;2.72;;;;;;;;;;5022931;28;20022;-65
2022/05/08 13:45:58;;;;;;;13.30;2.72;;;;;;;;;;5025268;28;20509;-66
2022/05/08 13:48:24;;;;;;;11.82;2.95;;;;;;;;;;5029138;28;20021;-65
2022/05/08 13:50:50;;;;;;;10.20;3.13;;;;;;;;;;5022143;28;20036;-65
2022/05/08 13:53:19;;;;;;;11.02;2.95;;;;;;;;;;5027427;28;20438;-65
2022/05/08 13:55:46;;;;;;;9.65;3.28;;;;;;;;;;5029816;28;20032;-65
2022/05/08 13:58:12;;;;;;;9.13;2.83;;;;;;;;;;5022172;28;20017;-65
2022/05/08 14:00:39;;;;;;;11.07;2.67;;;;;;;;;;5024841;28;20038;-65
2022/05/08 14:03:07;;;;;;;9.15;3.28;;;;;;;;;;5021827;28;20021;-65
2022/05/08 14:05:33;;;;;;;8.10;2.72;;;;;;;;;;5017536;28;20438;-64
2022/05/08 14:08:00;;;;;;;9.85;2.83;;;;;;;;;;5018106;28;20033;-64
2022/05/08 14:10:26;;;;;;;9.90;2.50;;;;;;;;;;5022260;28;20030;-64
2022/05/08 14:12:53;;;;;;;9.25;3.15;;;;;;;;;;5023645;28;20029;-65
2022/05/08 14:15:23;;;;;;;7.53;2.38;;;;;;;;;;5025359;28;20385;-65
2022/05/08 14:17:50;;;;;;;6.15;2.25;;;;;;;;;;5022818;28;20030;-65
2022/05/08 14:20:16;;;;;;;8.20;2.38;;;;;;;;;;5023744;28;20026;-64
2022/05/08 14:22:42;;;;;;;10.57;2.45;;;;;;;;;;5023277;28;20104;-65
2022/05/08 14:25:12;;;;;;;5.97;2.20;;;;;;;;;;5022112;28;20702;-65
2022/05/08 14:27:38;;;;;;;8.73;2.55;;;;;;;;;;5023536;28;20408;-65
2022/05/08 14:30:09;;;;;;;7.82;2.63;;;;;;;;;;5022175;28;20025;-65
2022/05/08 14:38:09;;;;;;;9.30;2.28;;;;;;;;;;5022804;28;20060;-65
2022/05/08 14:40:35;;;;;;;7.70;2.45;;;;;;;;;;5022415;28;20010;-64
2022/05/08 14:43:02;;;;;;;8.45;2.30;;;;;;;;;;5024918;28;20545;-65
2022/05/08 14:45:28;;;;;;;8.52;2.20;;;;;;;;;;5022841;28;20035;-65
2022/05/08 14:47:55;;;;;;;8.90;2.33;;;;;;;;;;5022679;28;20116;-65
2022/05/08 14:50:22;;;;;;;10.43;2.70;;;;;;;;;;5020526;28;20036;-65
2022/05/08 14:52:48;;;;;;;8.18;2.25;;;;;;;;;;5023394;28;20057;-64
2022/05/08 14:55:14;;;;;;;8.27;2.35;;;;;;;;;;5024168;28;20119;-64
2022/05/08 14:57:41;;;;;;;13.38;2.80;;;;;;;;;;5016647;28;20022;-65
2022/05/08 15:00:07;;;;;;;8.80;2.75;;;;;;;;;;5018969;28;21168;-65
2022/05/08 15:02:33;;;;;;;11.73;3.13;;;;;;;;;;5023647;28;20029;-65
2022/05/08 15:05:00;;;;;;;5.72;2.38;;;;;;;;;;5017532;28;20029;-65
2022/05/08 15:07:26;;;;;;;8.30;2.10;;;;;;;;;;5025121;28;20479;-65